Airfield :







YOU CAN JOIN US ON...

 
LOGIN :

Register | Disclaimer

   EN    FR    IT 

 









Legend :    VFR   Marginal VFR   IFR   Intensive IFR   Very Intensive IFR
Visi :
Ceiling :
>= 8 km
>= 3000ft
5 to 8 km
1000 to 3000 ft
1500m to 5 km
500 to 1000 ft
800 to 1500m
200 to 500 ft
< 800m
< 200 ft
Symbols :   Thunderstorms  Fog  Heavy snow  Heavy precipitations  Wind > 20 kt






- Airport Elevation : 454 ft


KIZG - Eastern Slopes Regional

CURRENT METAR :
  • 192154Z AUTO 00000KT 10SM FEW070 SCT080 28/12 A3004 RMK AO2 SLP171 T02780122

EXPIRED METARs :
  • 192054Z AUTO 03005KT 10SM CLR 28/13 A3004 RMK AO2 SLP170 T02830128 56006
  • 191954Z AUTO 00000KT 10SM CLR 28/12 A3004 RMK AO2 SLP170 T02830122
  • 191854Z AUTO 05007KT 10SM BKN070 28/12 A3005 RMK AO2 SLP173 T02780122
  • 191754Z AUTO 04005KT 10SM BKN060 26/13 A3006 RMK AO2 SLP176 T02610128 10278 20200 58005

TAF N/A
KZBW FIR / North America



MET'MAP, your aeronautical weather chart ! - Copyright ORBIFLY December 2007 - Disclaimer

ORBIFLY MET'MAP TEAM :

Programming & Development : Alexandra Zaïnal
Original concept : Baudouin d'Aumeries
Technical & hardware support : Manuel Goepfert
Assistance : Marc-Olivier Méhu




SOURCES & CREDITS :

   NOAA